Time,TemperatureF,DewpointF,PressureIn,WindDirection,WindDirectionDegrees,WindSpeedMPH,WindSpeedGustMPH,Humidity,HourlyPrecipIn,Conditions,Clouds,dailyrainin,SoftwareType,DateUTC
2013-06-07 00:02:00,55.2,50.1,30.07,SE,124,0.0,0.0,83,0.00,,CLR,0.00,VWS V14.01,2013-06-07 07:02:00,
2013-06-07 00:07:00,55.1,50.0,30.07,ESE,122,0.0,0.0,83,0.00,,CLR,0.00,VWS V14.01,2013-06-07 07:07:00,
2013-06-07 00:12:00,54.9,49.8,30.07,East,90,0.0,0.0,83,0.00,,CLR,0.00,VWS V14.01,2013-06-07 07:12:00,
2013-06-07 00:17:00,54.7,50.0,30.07,East,90,0.0,0.0,84,0.00,,CLR,0.00,VWS V14.01,2013-06-07 07:17:00,
2013-06-07 00:22:00,54.6,49.9,30.08,East,90,0.0,0.0,84,0.00,,CLR,0.00,VWS V14.01,2013-06-07 07:22:00,
2013-06-07 00:27:00,54.5,49.8,30.08,SE,142,3.0,0.0,84,0.00,,CLR,0.00,VWS V14.01,2013-06-07 07:27:00,
2013-06-07 00:32:00,54.4,50.0,30.08,SSE,155,0.0,0.0,85,0.00,,CLR,0.00,VWS V14.01,2013-06-07 07:32:00,
2013-06-07 00:37:00,54.3,49.9,30.08,SSE,155,0.0,0.0,85,0.00,,CLR,0.00,VWS V14.01,2013-06-07 07:37:00,
2013-06-07 00:42:00,54.2,49.8,30.08,ESE,119,1.0,0.0,85,0.00,,CLR,0.00,VWS V14.01,2013-06-07 07:42:00,
2013-06-07 00:47:00,54.0,49.6,30.08,ESE,119,0.0,0.0,85,0.00,,CLR,0.00,VWS V14.01,2013-06-07 07:47:00,
2013-06-07 00:52:00,53.9,49.8,30.08,SSE,151,0.0,0.0,86,0.00,,CLR,0.00,VWS V14.01,2013-06-07 07:52:00,
2013-06-07 00:57:00,53.8,49.7,30.08,SSE,151,0.0,0.0,86,0.00,,CLR,0.00,VWS V14.01,2013-06-07 07:57:00,
2013-06-07 01:02:00,54.0,50.2,30.08,ESE,111,1.0,0.0,87,0.00,,CLR,0.00,VWS V14.01,2013-06-07 08:02:00,
2013-06-07 01:07:00,54.0,49.9,30.08,ESE,111,0.0,0.0,86,0.00,,CLR,0.00,VWS V14.01,2013-06-07 08:07:00,
2013-06-07 01:12:00,53.9,49.8,30.08,ESE,109,0.0,0.0,86,0.00,,CLR,0.00,VWS V14.01,2013-06-07 08:12:00,
2013-06-07 01:17:00,53.9,50.1,30.08,East,84,0.0,0.0,87,0.00,,CLR,0.00,VWS V14.01,2013-06-07 08:17:00,
2013-06-07 01:22:00,53.8,50.0,30.08,East,85,0.0,0.0,87,0.00,,CLR,0.00,VWS V14.01,2013-06-07 08:22:00,
2013-06-07 01:27:00,53.8,50.0,30.08,East,85,0.0,0.0,87,0.00,,CLR,0.00,VWS V14.01,2013-06-07 08:27:00,
2013-06-07 01:32:00,53.7,49.9,30.08,East,98,1.0,0.0,87,0.00,,CLR,0.00,VWS V14.01,2013-06-07 08:32:00,
2013-06-07 01:37:00,53.8,50.0,30.08,ESE,105,1.0,0.0,87,0.00,,CLR,0.00,VWS V14.01,2013-06-07 08:37:00,
2013-06-07 01:42:00,53.8,50.0,30.08,ESE,116,1.0,0.0,87,0.00,,CLR,0.00,VWS V14.01,2013-06-07 08:42:00,
2013-06-07 01:47:00,53.8,50.0,30.08,ESE,115,0.0,0.0,87,0.00,,CLR,0.00,VWS V14.01,2013-06-07 08:47:00,
2013-06-07 01:52:00,53.6,50.1,30.08,ESE,113,1.0,0.0,88,0.00,,CLR,0.00,VWS V14.01,2013-06-07 08:52:00,
2013-06-07 01:57:00,53.6,50.1,30.08,ESE,115,0.0,0.0,88,0.00,,CLR,0.00,VWS V14.01,2013-06-07 08:57:00,
2013-06-07 02:02:00,53.6,50.1,30.09,ESE,109,1.0,0.0,88,0.00,,CLR,0.00,VWS V14.01,2013-06-07 09:02:00,
2013-06-07 02:07:00,53.7,50.2,30.08,ESE,107,1.0,0.0,88,0.00,,CLR,0.00,VWS V14.01,2013-06-07 09:07:00,
2013-06-07 02:12:00,53.6,50.1,30.08,ESE,105,1.0,0.0,88,0.00,,CLR,0.00,VWS V14.01,2013-06-07 09:12:00,
2013-06-07 02:17:00,53.4,49.9,30.08,SSE,148,0.0,0.0,88,0.00,,CLR,0.00,VWS V14.01,2013-06-07 09:17:00,
2013-06-07 02:22:00,53.2,49.7,30.09,SSE,148,0.0,0.0,88,0.00,,CLR,0.00,VWS V14.01,2013-06-07 09:22:00,
2013-06-07 02:27:00,53.0,49.8,30.08,SSE,148,0.0,0.0,89,0.00,,CLR,0.00,VWS V14.01,2013-06-07 09:27:00,
2013-06-07 02:32:00,53.0,49.8,30.08,ESE,110,2.0,0.0,89,0.00,,CLR,0.00,VWS V14.01,2013-06-07 09:32:00,
2013-06-07 02:37:00,53.3,50.2,30.08,ESE,113,1.0,0.0,89,0.00,,CLR,0.00,VWS V14.01,2013-06-07 09:37:00,
2013-06-07 02:42:00,53.4,49.9,30.09,ESE,104,3.0,0.0,88,0.00,,CLR,0.00,VWS V14.01,2013-06-07 09:42:00,
2013-06-07 02:47:00,53.5,50.0,30.09,East,99,2.0,0.0,88,0.00,,CLR,0.00,VWS V14.01,2013-06-07 09:47:00,
2013-06-07 02:52:00,53.5,50.0,30.09,ESE,115,0.0,0.0,88,0.00,,CLR,0.00,VWS V14.01,2013-06-07 09:52:00,
2013-06-07 02:57:00,53.4,49.9,30.09,ESE,107,2.0,0.0,88,0.00,,CLR,0.00,VWS V14.01,2013-06-07 09:57:00,
2013-06-07 03:02:00,53.3,49.8,30.10,ESE,111,2.0,0.0,88,0.00,,CLR,0.00,VWS V14.01,2013-06-07 10:02:00,
2013-06-07 03:07:00,53.3,49.8,30.10,ESE,117,0.0,0.0,88,0.00,,CLR,0.00,VWS V14.01,2013-06-07 10:07:00,
2013-06-07 03:12:00,53.2,49.7,30.10,ESE,112,2.0,0.0,88,0.00,,CLR,0.00,VWS V14.01,2013-06-07 10:12:00,
2013-06-07 03:17:00,53.2,49.7,30.09,ESE,112,0.0,0.0,88,0.00,,CLR,0.00,VWS V14.01,2013-06-07 10:17:00,
2013-06-07 03:22:00,53.0,49.5,30.10,ESE,104,2.0,0.0,88,0.00,,CLR,0.00,VWS V14.01,2013-06-07 10:22:00,
2013-06-07 03:27:00,53.0,49.8,30.10,ESE,109,0.0,0.0,89,0.00,,CLR,0.00,VWS V14.01,2013-06-07 10:27:00,
2013-06-07 03:32:00,52.8,49.3,30.10,ESE,109,0.0,0.0,88,0.00,,CLR,0.00,VWS V14.01,2013-06-07 10:32:00,
2013-06-07 03:37:00,52.6,49.5,30.10,ESE,109,0.0,0.0,89,0.00,,CLR,0.00,VWS V14.01,2013-06-07 10:37:00,
2013-06-07 03:42:00,52.4,49.3,30.10,ESE,109,0.0,0.0,89,0.00,,CLR,0.00,VWS V14.01,2013-06-07 10:42:00,
2013-06-07 03:47:00,52.3,49.2,30.10,ESE,107,0.0,0.0,89,0.00,,CLR,0.00,VWS V14.01,2013-06-07 10:47:00,
2013-06-07 03:52:00,52.2,49.1,30.10,ESE,107,0.0,0.0,89,0.00,,CLR,0.00,VWS V14.01,2013-06-07 10:52:00,
2013-06-07 03:57:00,52.0,48.9,30.10,ESE,107,0.0,0.0,89,0.00,,CLR,0.00,VWS V14.01,2013-06-07 10:57:00,
2013-06-07 04:02:00,51.7,48.6,30.10,ESE,107,0.0,0.0,89,0.00,,CLR,0.00,VWS V14.01,2013-06-07 11:02:00,
2013-06-07 04:07:00,51.5,48.7,30.10,ESE,107,0.0,0.0,90,0.00,,CLR,0.00,VWS V14.01,2013-06-07 11:07:00,
2013-06-07 04:12:00,51.3,48.5,30.10,ESE,107,0.0,0.0,90,0.00,,CLR,0.00,VWS V14.01,2013-06-07 11:12:00,
2013-06-07 04:17:00,51.0,48.2,30.10,ESE,107,0.0,0.0,90,0.00,,CLR,0.00,VWS V14.01,2013-06-07 11:17:00,
2013-06-07 04:22:00,50.8,48.0,30.10,ESE,107,0.0,0.0,90,0.00,,CLR,0.00,VWS V14.01,2013-06-07 11:22:00,
2013-06-07 04:27:00,50.5,47.7,30.10,ESE,107,0.0,0.0,90,0.00,,CLR,0.00,VWS V14.01,2013-06-07 11:27:00,
2013-06-07 04:32:00,50.3,47.5,30.10,ESE,107,0.0,0.0,90,0.00,,CLR,0.00,VWS V14.01,2013-06-07 11:32:00,
2013-06-07 04:37:00,50.3,47.8,30.10,ESE,108,0.0,0.0,91,0.00,,CLR,0.00,VWS V14.01,2013-06-07 11:37:00,
2013-06-07 04:42:00,50.4,47.9,30.10,ESE,107,0.0,0.0,91,0.00,,CLR,0.00,VWS V14.01,2013-06-07 11:42:00,
2013-06-07 04:47:00,50.3,47.8,30.10,ESE,107,0.0,0.0,91,0.00,,CLR,0.00,VWS V14.01,2013-06-07 11:47:00,
2013-06-07 04:52:00,50.3,47.8,30.10,ESE,107,0.0,0.0,91,0.00,,CLR,0.00,VWS V14.01,2013-06-07 11:52:00,
2013-06-07 04:57:00,50.3,47.8,30.10,ESE,107,0.0,0.0,91,0.00,,CLR,0.00,VWS V14.01,2013-06-07 11:57:00,
2013-06-07 05:02:00,50.1,47.6,30.11,ESE,107,0.0,0.0,91,0.00,,CLR,0.00,VWS V14.01,2013-06-07 12:02:00,
2013-06-07 05:07:00,49.9,47.4,30.11,ESE,107,0.0,0.0,91,0.00,,CLR,0.00,VWS V14.01,2013-06-07 12:07:00,
2013-06-07 05:12:00,49.8,47.3,30.11,ESE,107,0.0,0.0,91,0.00,,CLR,0.00,VWS V14.01,2013-06-07 12:12:00,
2013-06-07 05:17:00,49.8,47.3,30.11,ESE,108,0.0,0.0,91,0.00,,CLR,0.00,VWS V14.01,2013-06-07 12:17:00,
2013-06-07 05:22:00,49.6,47.1,30.11,ESE,107,0.0,0.0,91,0.00,,CLR,0.00,VWS V14.01,2013-06-07 12:22:00,
2013-06-07 05:27:00,49.5,47.0,30.11,ESE,107,0.0,0.0,91,0.00,,CLR,0.00,VWS V14.01,2013-06-07 12:27:00,
2013-06-07 05:32:00,49.4,47.2,30.11,ESE,108,0.0,0.0,92,0.00,,CLR,0.00,VWS V14.01,2013-06-07 12:32:00,
2013-06-07 05:37:00,49.4,47.2,30.11,ESE,107,0.0,0.0,92,0.00,,CLR,0.00,VWS V14.01,2013-06-07 12:37:00,
2013-06-07 05:42:00,49.3,47.1,30.11,ESE,107,0.0,0.0,92,0.00,,FEW014,0.00,VWS V14.01,2013-06-07 12:42:00,
2013-06-07 05:47:00,49.3,47.1,30.11,ESE,107,0.0,0.0,92,0.00,,FEW014,0.00,VWS V14.01,2013-06-07 12:47:00,
2013-06-07 05:52:00,49.4,47.2,30.11,ESE,109,0.0,0.0,92,0.00,,FEW014,0.00,VWS V14.01,2013-06-07 12:52:00,
2013-06-07 05:57:00,49.4,47.2,30.11,ESE,109,0.0,0.0,92,0.00,,FEW014,0.00,VWS V14.01,2013-06-07 12:57:00,
2013-06-07 06:02:00,49.6,47.4,30.11,ESE,109,0.0,0.0,92,0.00,,FEW014,0.00,VWS V14.01,2013-06-07 13:02:00,
2013-06-07 06:07:00,49.9,47.7,30.11,ESE,109,0.0,0.0,92,0.00,,CLR,0.00,VWS V14.01,2013-06-07 13:07:00,
2013-06-07 06:12:00,50.4,48.2,30.11,ESE,109,0.0,0.0,92,0.00,,CLR,0.00,VWS V14.01,2013-06-07 13:12:00,
2013-06-07 06:17:00,50.7,48.5,30.12,ESE,109,0.0,0.0,92,0.00,,CLR,0.00,VWS V14.01,2013-06-07 13:17:00,
2013-06-07 06:22:00,51.3,48.8,30.12,ESE,109,0.0,0.0,91,0.00,,CLR,0.00,VWS V14.01,2013-06-07 13:22:00,
2013-06-07 06:27:00,51.9,49.4,30.12,ESE,109,0.0,0.0,91,0.00,,CLR,0.00,VWS V14.01,2013-06-07 13:27:00,
2013-06-07 06:32:00,52.5,50.0,30.12,ESE,109,0.0,0.0,91,0.00,,CLR,0.00,VWS V14.01,2013-06-07 13:32:00,
2013-06-07 06:37:00,53.4,50.5,30.12,ESE,109,0.0,0.0,90,0.00,,CLR,0.00,VWS V14.01,2013-06-07 13:37:00,
2013-06-07 06:42:00,54.4,51.2,30.12,ESE,109,0.0,0.0,89,0.00,,CLR,0.00,VWS V14.01,2013-06-07 13:42:00,
2013-06-07 06:47:00,55.3,51.5,30.12,ESE,109,0.0,0.0,87,0.00,,CLR,0.00,VWS V14.01,2013-06-07 13:47:00,
2013-06-07 06:52:00,55.6,51.2,30.12,SW,214,1.0,0.0,85,0.00,,CLR,0.00,VWS V14.01,2013-06-07 13:52:00,
2013-06-07 06:57:00,55.1,51.0,30.11,SSW,213,0.0,0.0,86,0.00,,CLR,0.00,VWS V14.01,2013-06-07 13:57:00,
2013-06-07 07:02:00,55.3,51.5,30.11,SSW,213,0.0,0.0,87,0.00,,CLR,0.00,VWS V14.01,2013-06-07 14:02:00,
2013-06-07 07:07:00,55.6,51.5,30.11,SSW,192,1.0,0.0,86,0.00,,SCT110,0.00,VWS V14.01,2013-06-07 14:07:00,
2013-06-07 07:12:00,55.5,51.4,30.12,SSW,211,0.0,0.0,86,0.00,,SCT110,0.00,VWS V14.01,2013-06-07 14:12:00,
2013-06-07 07:17:00,55.3,51.2,30.12,SSW,194,0.0,0.0,86,0.00,,SCT110,0.00,VWS V14.01,2013-06-07 14:17:00,
2013-06-07 07:22:00,55.1,51.0,30.12,SSW,194,0.0,0.0,86,0.00,,OVC110,0.00,VWS V14.01,2013-06-07 14:22:00,
2013-06-07 07:27:00,55.4,51.6,30.12,SSW,193,0.0,0.0,87,0.00,,OVC110,0.00,VWS V14.01,2013-06-07 14:27:00,
2013-06-07 07:32:00,55.4,51.6,30.12,WSW,238,0.0,0.0,87,0.00,,OVC110,0.00,VWS V14.01,2013-06-07 14:32:00,
2013-06-07 07:37:00,55.3,51.2,30.11,SW,236,0.0,0.0,86,0.00,,OVC110,0.00,VWS V14.01,2013-06-07 14:37:00,
2013-06-07 07:42:00,55.4,51.3,30.11,SW,236,0.0,0.0,86,0.00,,OVC120,0.00,VWS V14.01,2013-06-07 14:42:00,
2013-06-07 07:47:00,55.8,51.7,30.12,SW,236,0.0,0.0,86,0.00,,OVC120,0.00,VWS V14.01,2013-06-07 14:47:00,
2013-06-07 07:52:00,56.1,51.7,30.12,WSW,241,1.0,0.0,85,0.00,,OVC120,0.00,VWS V14.01,2013-06-07 14:52:00,
2013-06-07 07:57:00,56.1,51.7,30.12,WSW,241,0.0,0.0,85,0.00,,OVC120,0.00,VWS V14.01,2013-06-07 14:57:00,
2013-06-07 08:02:00,56.6,51.8,30.12,NNE,26,0.0,0.0,84,0.00,,OVC120,0.00,VWS V14.01,2013-06-07 15:02:00,
2013-06-07 08:07:00,57.2,52.1,30.12,ENE,78,0.0,0.0,83,0.00,,OVC120,0.00,VWS V14.01,2013-06-07 15:07:00,
2013-06-07 08:12:00,57.3,51.9,30.12,East,80,1.0,0.0,82,0.00,,OVC120,0.00,VWS V14.01,2013-06-07 15:12:00,
2013-06-07 08:17:00,57.4,52.3,30.11,East,80,1.0,0.0,83,0.00,,OVC120,0.00,VWS V14.01,2013-06-07 15:17:00,
2013-06-07 08:22:00,58.7,52.6,30.11,SW,229,0.0,0.0,80,0.00,,OVC120,0.00,VWS V14.01,2013-06-07 15:22:00,
2013-06-07 08:27:00,58.9,52.1,30.12,ESE,111,2.0,0.0,78,0.00,,OVC120,0.00,VWS V14.01,2013-06-07 15:27:00,
2013-06-07 08:32:00,58.3,51.8,30.12,ESE,113,0.0,0.0,79,0.00,,OVC120,0.00,VWS V14.01,2013-06-07 15:32:00,
2013-06-07 08:37:00,58.5,52.0,30.12,ENE,75,0.0,0.0,79,0.00,,OVC120,0.00,VWS V14.01,2013-06-07 15:37:00,
2013-06-07 08:42:00,58.6,51.8,30.12,East,98,2.0,0.0,78,0.00,,OVC120,0.00,VWS V14.01,2013-06-07 15:42:00,
2013-06-07 08:47:00,58.7,51.9,30.12,NE,55,0.0,0.0,78,0.00,,OVC120,0.00,VWS V14.01,2013-06-07 15:47:00,
2013-06-07 08:52:00,59.0,51.8,30.12,NE,55,0.0,0.0,77,0.00,,OVC120,0.00,VWS V14.01,2013-06-07 15:52:00,
2013-06-07 08:57:00,59.3,52.1,30.11,East,84,1.0,0.0,77,0.00,,OVC120,0.00,VWS V14.01,2013-06-07 15:57:00,
2013-06-07 09:02:00,59.4,51.5,30.12,NE,38,1.0,0.0,75,0.00,,OVC120,0.00,VWS V14.01,2013-06-07 16:02:00,
2013-06-07 09:07:00,59.5,51.6,30.12,NE,44,0.0,0.0,75,0.00,,OVC070,0.00,VWS V14.01,2013-06-07 16:07:00,
2013-06-07 09:12:00,59.8,51.9,30.12,ESE,111,3.0,0.0,75,0.00,,OVC070,0.00,VWS V14.01,2013-06-07 16:12:00,
2013-06-07 09:17:00,59.5,51.6,30.12,SE,126,0.0,0.0,75,0.00,,OVC070,0.00,VWS V14.01,2013-06-07 16:17:00,
2013-06-07 09:22:00,59.8,52.2,30.12,SE,125,1.0,0.0,76,0.00,,OVC060,0.00,VWS V14.01,2013-06-07 16:22:00,
2013-06-07 09:27:00,59.7,51.8,30.11,SE,126,1.0,0.0,75,0.00,,OVC060,0.00,VWS V14.01,2013-06-07 16:27:00,
2013-06-07 09:32:00,59.9,52.3,30.11,SE,125,1.0,0.0,76,0.00,,OVC060,0.00,VWS V14.01,2013-06-07 16:32:00,
2013-06-07 09:37:00,60.3,52.0,30.11,East,100,1.0,0.0,74,0.00,,OVC060,0.00,VWS V14.01,2013-06-07 16:37:00,
2013-06-07 09:42:00,60.9,53.3,30.11,ESE,109,2.0,0.0,76,0.00,,OVC060,0.00,VWS V14.01,2013-06-07 16:42:00,
2013-06-07 09:47:00,61.3,52.2,30.11,ENE,57,0.0,0.0,72,0.00,,OVC060,0.00,VWS V14.01,2013-06-07 16:47:00,
2013-06-07 09:52:00,61.4,53.0,30.11,SE,126,1.0,0.0,74,0.00,,OVC060,0.00,VWS V14.01,2013-06-07 16:52:00,
2013-06-07 09:57:00,61.3,52.6,30.11,ENE,65,0.0,0.0,73,0.00,,OVC060,0.00,VWS V14.01,2013-06-07 16:57:00,
2013-06-07 10:02:00,61.5,52.8,30.11,ESE,108,1.0,0.0,73,0.00,,OVC060,0.00,VWS V14.01,2013-06-07 17:02:00,
2013-06-07 10:07:00,61.5,52.4,30.11,NE,50,1.0,0.0,72,0.00,,OVC060,0.00,VWS V14.01,2013-06-07 17:07:00,
2013-06-07 10:12:00,61.6,52.5,30.11,ESE,115,2.0,0.0,72,0.00,,OVC060,0.00,VWS V14.01,2013-06-07 17:12:00,
2013-06-07 10:17:00,61.6,52.1,30.11,NNE,31,1.0,0.0,71,0.00,,OVC060,0.00,VWS V14.01,2013-06-07 17:17:00,
2013-06-07 10:22:00,62.2,52.7,30.11,East,99,1.0,0.0,71,0.00,,OVC060,0.00,VWS V14.01,2013-06-07 17:22:00,
2013-06-07 10:27:00,62.4,53.6,30.11,East,89,0.0,0.0,73,0.00,,OVC060,0.00,VWS V14.01,2013-06-07 17:27:00,
2013-06-07 10:32:00,62.8,52.9,30.11,NW,313,2.0,0.0,70,0.00,,OVC060,0.00,VWS V14.01,2013-06-07 17:32:00,
2013-06-07 10:37:00,63.3,53.0,30.11,NW,314,1.0,0.0,69,0.00,,OVC060,0.00,VWS V14.01,2013-06-07 17:37:00,
2013-06-07 10:42:00,63.7,53.0,30.11,East,96,1.0,0.0,68,0.00,,OVC050,0.00,VWS V14.01,2013-06-07 17:42:00,
2013-06-07 10:47:00,63.9,53.1,30.12,ESE,114,3.0,0.0,68,0.00,,OVC050,0.00,VWS V14.01,2013-06-07 17:47:00,
2013-06-07 10:52:00,63.3,52.6,30.12,ESE,119,4.0,0.0,68,0.00,,OVC050,0.00,VWS V14.01,2013-06-07 17:52:00,
2013-06-07 10:57:00,63.0,53.1,30.12,SE,134,0.0,0.0,70,0.00,,OVC050,0.00,VWS V14.01,2013-06-07 17:57:00,
2013-06-07 11:02:00,63.5,52.8,30.12,NW,319,0.0,0.0,68,0.00,,OVC050,0.00,VWS V14.01,2013-06-07 18:02:00,
2013-06-07 11:07:00,64.1,53.3,30.12,SSW,203,1.0,0.0,68,0.00,,OVC050,0.00,VWS V14.01,2013-06-07 18:07:00,
2013-06-07 11:12:00,64.2,53.0,30.12,SW,229,0.0,0.0,67,0.00,,OVC050,0.00,VWS V14.01,2013-06-07 18:12:00,
2013-06-07 11:17:00,64.5,54.5,30.12,ESE,102,1.0,0.0,70,0.00,,OVC050,0.00,VWS V14.01,2013-06-07 18:17:00,
2013-06-07 11:22:00,65.0,54.2,30.12,ESE,121,1.0,0.0,68,0.00,,OVC043,0.00,VWS V14.01,2013-06-07 18:22:00,
2013-06-07 11:27:00,65.1,53.9,30.12,SE,129,2.0,0.0,67,0.00,,OVC043,0.00,VWS V14.01,2013-06-07 18:27:00,
2013-06-07 11:32:00,65.1,52.6,30.12,ESE,120,0.0,0.0,64,0.00,,OVC043,0.00,VWS V14.01,2013-06-07 18:32:00,
2013-06-07 11:37:00,65.2,50.5,30.12,ESE,109,1.0,0.0,59,0.00,,OVC043,0.00,VWS V14.01,2013-06-07 18:37:00,
2013-06-07 11:42:00,65.9,53.0,30.12,South,187,1.0,0.0,63,0.00,,OVC041,0.00,VWS V14.01,2013-06-07 18:42:00,
2013-06-07 11:47:00,66.9,51.7,30.12,SW,229,0.0,0.0,58,0.00,,OVC041,0.00,VWS V14.01,2013-06-07 18:47:00,
2013-06-07 11:52:00,67.3,51.1,30.12,ESE,123,2.0,0.0,56,0.00,,OVC041,0.00,VWS V14.01,2013-06-07 18:52:00,
2013-06-07 11:58:00,66.8,51.1,30.12,ESE,113,2.0,0.0,57,0.00,,OVC041,0.00,VWS V14.01,2013-06-07 18:58:00,
2013-06-07 12:03:00,67.1,49.9,30.12,ESE,118,0.0,0.0,54,0.00,,OVC055,0.00,VWS V14.01,2013-06-07 19:03:00,
2013-06-07 12:08:00,67.6,50.4,30.12,ESE,113,2.0,0.0,54,0.00,,OVC055,0.00,VWS V14.01,2013-06-07 19:08:00,
2013-06-07 12:13:00,68.0,50.8,30.12,SE,128,2.0,0.0,54,0.00,,OVC055,0.00,VWS V14.01,2013-06-07 19:13:00,
2013-06-07 12:18:00,68.5,51.7,30.12,ESE,113,1.0,0.0,55,0.00,,OVC055,0.00,VWS V14.01,2013-06-07 19:18:00,
2013-06-07 12:23:00,68.8,51.0,30.12,ESE,102,3.0,0.0,53,0.00,,OVC070,0.00,VWS V14.01,2013-06-07 19:23:00,
2013-06-07 12:28:00,68.1,50.8,30.12,East,86,1.0,0.0,54,0.00,,OVC070,0.00,VWS V14.01,2013-06-07 19:28:00,
2013-06-07 12:33:00,68.8,51.0,30.12,ESE,103,2.0,0.0,53,0.00,,OVC070,0.00,VWS V14.01,2013-06-07 19:33:00,
2013-06-07 12:38:00,68.7,51.9,30.12,SE,126,3.0,0.0,55,0.00,,OVC070,0.00,VWS V14.01,2013-06-07 19:38:00,
2013-06-07 12:43:00,69.1,50.8,30.12,ESE,107,0.0,0.0,52,0.00,,OVC070,0.00,VWS V14.01,2013-06-07 19:43:00,
2013-06-07 12:48:00,69.6,51.7,30.12,East,90,4.0,0.0,53,0.00,,OVC070,0.00,VWS V14.01,2013-06-07 19:48:00,
2013-06-07 12:53:00,69.9,54.0,30.12,East,87,2.0,0.0,57,0.00,,OVC070,0.00,VWS V14.01,2013-06-07 19:53:00,
2013-06-07 12:58:00,70.3,52.4,30.11,West,260,3.0,0.0,53,0.00,,OVC070,0.00,VWS V14.01,2013-06-07 19:58:00,
2013-06-07 13:03:00,70.3,54.4,30.11,ENE,70,1.0,0.0,57,0.00,,OVC070,0.00,VWS V14.01,2013-06-07 20:03:00,
2013-06-07 13:09:00,70.2,53.3,30.11,East,91,3.0,0.0,55,0.00,,OVC070,0.00,VWS V14.01,2013-06-07 20:09:00,
2013-06-07 13:14:00,70.0,53.6,30.11,ESE,111,3.0,0.0,56,0.00,,OVC070,0.00,VWS V14.01,2013-06-07 20:14:00,
2013-06-07 13:19:00,71.0,54.0,30.11,NE,51,0.0,0.0,55,0.00,,OVC070,0.00,VWS V14.01,2013-06-07 20:19:00,
2013-06-07 13:24:00,71.4,52.9,30.11,ESE,115,2.0,0.0,52,0.00,,OVC070,0.00,VWS V14.01,2013-06-07 20:24:00,
2013-06-07 13:29:00,70.9,54.0,30.11,ESE,102,2.0,0.0,55,0.00,,OVC070,0.00,VWS V14.01,2013-06-07 20:29:00,
2013-06-07 13:34:00,71.3,52.8,30.11,ENE,69,1.0,0.0,52,0.00,,OVC070,0.00,VWS V14.01,2013-06-07 20:34:00,
2013-06-07 13:39:00,70.7,52.8,30.11,SE,133,1.0,0.0,53,0.00,,OVC070,0.00,VWS V14.01,2013-06-07 20:39:00,
2013-06-07 13:44:00,70.5,53.6,30.11,ESE,112,4.0,0.0,55,0.00,,OVC041,0.00,VWS V14.01,2013-06-07 20:44:00,
2013-06-07 13:49:00,70.3,55.3,30.11,ESE,105,5.0,0.0,59,0.00,,OVC041,0.00,VWS V14.01,2013-06-07 20:49:00,
2013-06-07 13:54:00,70.4,55.4,30.11,SE,128,3.0,0.0,59,0.00,,OVC041,0.00,VWS V14.01,2013-06-07 20:54:00,
2013-06-07 13:59:00,70.7,54.7,30.11,ESE,107,5.0,0.0,57,0.00,,OVC041,0.00,VWS V14.01,2013-06-07 20:59:00,
2013-06-07 14:04:00,70.8,56.7,30.11,East,100,1.0,0.0,61,0.00,,OVC041,0.00,VWS V14.01,2013-06-07 21:04:00,
2013-06-07 14:09:00,71.1,55.6,30.11,ESE,109,6.0,0.0,58,0.00,,OVC041,0.00,VWS V14.01,2013-06-07 21:09:00,
2013-06-07 14:14:00,71.1,57.0,30.11,East,101,8.0,0.0,61,0.00,,OVC041,0.00,VWS V14.01,2013-06-07 21:14:00,
2013-06-07 14:19:00,72.0,58.3,30.11,ESE,105,1.0,0.0,62,0.00,,OVC041,0.00,VWS V14.01,2013-06-07 21:19:00,
2013-06-07 14:24:00,72.6,57.5,30.11,East,89,3.0,0.0,59,0.00,,OVC041,0.00,VWS V14.01,2013-06-07 21:24:00,
2013-06-07 14:29:00,71.6,57.0,30.11,East,96,5.0,0.0,60,0.00,,OVC041,0.00,VWS V14.01,2013-06-07 21:29:00,
2013-06-07 14:34:00,70.8,56.7,30.11,ESE,119,3.0,0.0,61,0.00,,OVC041,0.00,VWS V14.01,2013-06-07 21:34:00,
2013-06-07 14:39:00,70.1,56.9,30.11,SSE,163,4.0,0.0,63,0.00,,OVC041,0.00,VWS V14.01,2013-06-07 21:39:00,
2013-06-07 14:44:00,70.1,56.9,30.11,ESE,121,4.0,0.0,63,0.00,,OVC045,0.00,VWS V14.01,2013-06-07 21:44:00,
2013-06-07 14:49:00,69.7,56.6,30.11,ENE,78,9.0,0.0,63,0.00,,OVC045,0.00,VWS V14.01,2013-06-07 21:49:00,
2013-06-07 14:54:00,69.3,57.5,30.11,ESE,115,2.0,0.0,66,0.00,,OVC045,0.00,VWS V14.01,2013-06-07 21:54:00,
2013-06-07 14:59:00,68.9,56.7,30.11,ESE,115,10.0,0.0,65,0.00,,OVC045,0.00,VWS V14.01,2013-06-07 21:59:00,
2013-06-07 15:04:00,69.1,57.7,30.11,East,99,7.0,0.0,67,0.00,,OVC043,0.00,VWS V14.01,2013-06-07 22:04:00,
2013-06-07 15:09:00,69.0,58.0,30.11,ESE,116,1.0,0.0,68,0.00,,OVC043,0.00,VWS V14.01,2013-06-07 22:09:00,
2013-06-07 15:15:00,69.9,58.5,30.11,ESE,110,7.0,0.0,67,0.00,,OVC043,0.00,VWS V14.01,2013-06-07 22:15:00,
2013-06-07 15:20:00,70.6,59.5,30.11,ENE,61,10.0,0.0,68,0.00,,OVC043,0.00,VWS V14.01,2013-06-07 22:20:00,
2013-06-07 15:25:00,70.1,58.2,30.11,ESE,111,4.0,0.0,66,0.00,,OVC041,0.00,VWS V14.01,2013-06-07 22:25:00,
2013-06-07 15:30:00,70.0,58.1,30.11,ENE,72,3.0,0.0,66,0.00,,OVC041,0.00,VWS V14.01,2013-06-07 22:30:00,
2013-06-07 15:35:00,70.0,58.5,30.11,ESE,105,5.0,0.0,67,0.00,,OVC041,0.00,VWS V14.01,2013-06-07 22:35:00,
2013-06-07 15:40:00,69.8,58.4,30.11,ESE,115,6.0,0.0,67,0.00,,OVC041,0.00,VWS V14.01,2013-06-07 22:40:00,
2013-06-07 15:45:00,69.6,58.2,30.12,SE,142,4.0,0.0,67,0.00,,OVC050,0.00,VWS V14.01,2013-06-07 22:45:00,
2013-06-07 15:50:00,69.5,58.1,30.12,ESE,110,4.0,0.0,67,0.00,,OVC050,0.00,VWS V14.01,2013-06-07 22:50:00,
2013-06-07 15:55:00,69.2,58.6,30.12,ESE,121,4.0,0.0,69,0.00,,OVC050,0.00,VWS V14.01,2013-06-07 22:55:00,
2013-06-07 16:00:00,69.6,57.8,30.12,ESE,110,11.0,0.0,66,0.00,,OVC050,0.00,VWS V14.01,2013-06-07 23:00:00,
2013-06-07 16:05:00,69.3,57.5,30.12,SE,141,4.0,0.0,66,0.00,,OVC050,0.00,VWS V14.01,2013-06-07 23:05:00,
2013-06-07 16:10:00,69.0,57.6,30.13,ESE,114,3.0,0.0,67,0.00,,OVC050,0.00,VWS V14.01,2013-06-07 23:10:00,
2013-06-07 16:16:00,68.2,57.7,30.13,ESE,111,7.0,0.0,69,0.00,,OVC050,0.00,VWS V14.01,2013-06-07 23:16:00,
2013-06-07 16:21:00,67.4,56.9,30.13,ENE,67,15.0,0.0,69,0.00,,OVC050,0.00,VWS V14.01,2013-06-07 23:21:00,
2013-06-07 16:26:00,66.6,56.9,30.13,East,96,12.0,0.0,71,0.00,,OVC050,0.00,VWS V14.01,2013-06-07 23:26:00,
2013-06-07 16:31:00,66.7,57.0,30.13,ESE,118,9.0,0.0,71,0.00,,OVC050,0.00,VWS V14.01,2013-06-07 23:31:00,
2013-06-07 16:36:00,66.8,56.7,30.13,SE,143,9.0,0.0,70,0.00,,OVC050,0.00,VWS V14.01,2013-06-07 23:36:00,
2013-06-07 16:41:00,66.8,57.1,30.13,SE,132,3.0,0.0,71,0.00,,OVC050,0.00,VWS V14.01,2013-06-07 23:41:00,
2013-06-07 16:46:00,66.9,57.2,30.13,SE,126,9.0,0.0,71,0.00,,OVC050,0.00,VWS V14.01,2013-06-07 23:46:00,
2013-06-07 16:51:00,67.5,57.8,30.13,East,88,3.0,0.0,71,0.00,,OVC050,0.00,VWS V14.01,2013-06-07 23:51:00,
2013-06-07 16:57:00,68.0,57.5,30.13,ENE,58,2.0,0.0,69,0.00,,OVC050,0.00,VWS V14.01,2013-06-07 23:57:00,
2013-06-07 17:02:00,68.0,57.9,30.13,ESE,107,2.0,0.0,70,0.00,,OVC050,0.00,VWS V14.01,2013-06-08 00:02:00,
2013-06-07 17:07:00,67.8,57.3,30.12,ESE,118,13.0,0.0,69,0.00,,OVC042,0.00,VWS V14.01,2013-06-08 00:07:00,
2013-06-07 17:12:00,67.7,57.6,30.12,ESE,102,9.0,0.0,70,0.00,,OVC042,0.00,VWS V14.01,2013-06-08 00:12:00,
2013-06-07 17:17:00,67.5,57.0,30.12,SE,144,6.0,0.0,69,0.00,,OVC042,0.00,VWS V14.01,2013-06-08 00:17:00,
2013-06-07 17:22:00,67.4,57.3,30.12,ENE,75,5.0,0.0,70,0.00,,OVC044,0.00,VWS V14.01,2013-06-08 00:22:00,
2013-06-07 17:27:00,67.5,57.4,30.12,ESE,108,7.0,0.0,70,0.00,,OVC044,0.00,VWS V14.01,2013-06-08 00:27:00,
2013-06-07 17:32:00,67.7,57.6,30.12,NE,50,1.0,0.0,70,0.00,,OVC044,0.00,VWS V14.01,2013-06-08 00:32:00,
2013-06-07 17:37:00,67.8,57.3,30.12,ESE,115,7.0,0.0,69,0.00,,OVC044,0.00,VWS V14.01,2013-06-08 00:37:00,
2013-06-07 17:42:00,67.5,57.0,30.12,ESE,106,6.0,0.0,69,0.00,,SCT044,0.00,VWS V14.01,2013-06-08 00:42:00,
2013-06-07 17:47:00,67.3,57.2,30.12,East,95,6.0,0.0,70,0.00,,SCT044,0.00,VWS V14.01,2013-06-08 00:47:00,
2013-06-07 17:52:00,67.4,57.3,30.12,ESE,119,3.0,0.0,70,0.00,,SCT044,0.00,VWS V14.01,2013-06-08 00:52:00,
2013-06-07 17:57:00,67.2,57.1,30.12,East,99,5.0,0.0,70,0.00,,SCT044,0.00,VWS V14.01,2013-06-08 00:57:00,
2013-06-07 18:03:00,67.1,57.4,30.11,ESE,103,7.0,0.0,71,0.00,,CLR,0.00,VWS V14.01,2013-06-08 01:03:00,
2013-06-07 18:08:00,66.8,57.1,30.11,ENE,72,11.0,0.0,71,0.00,,CLR,0.00,VWS V14.01,2013-06-08 01:08:00,
2013-06-07 18:13:00,66.7,57.0,30.11,ESE,102,14.0,0.0,71,0.00,,CLR,0.00,VWS V14.01,2013-06-08 01:13:00,
2013-06-07 18:18:00,66.6,56.9,30.12,ESE,118,10.0,0.0,71,0.00,,CLR,0.00,VWS V14.01,2013-06-08 01:18:00,
2013-06-07 18:23:00,66.3,57.0,30.12,East,95,7.0,0.0,72,0.00,,CLR,0.00,VWS V14.01,2013-06-08 01:23:00,
2013-06-07 18:28:00,66.3,57.0,30.12,ESE,123,13.0,0.0,72,0.00,,CLR,0.00,VWS V14.01,2013-06-08 01:28:00,
2013-06-07 18:33:00,66.0,56.7,30.12,ESE,121,6.0,0.0,72,0.00,,CLR,0.00,VWS V14.01,2013-06-08 01:33:00,
2013-06-07 18:38:00,66.2,56.9,30.12,SSE,166,3.0,0.0,72,0.00,,CLR,0.00,VWS V14.01,2013-06-08 01:38:00,
2013-06-07 18:43:00,66.2,57.3,30.12,East,83,4.0,0.0,73,0.00,,CLR,0.00,VWS V14.01,2013-06-08 01:43:00,
2013-06-07 18:48:00,66.1,56.8,30.12,East,92,4.0,0.0,72,0.00,,CLR,0.00,VWS V14.01,2013-06-08 01:48:00,
2013-06-07 18:53:00,65.9,57.0,30.12,East,94,13.0,0.0,73,0.00,,CLR,0.00,VWS V14.01,2013-06-08 01:53:00,
2013-06-07 18:58:00,65.6,57.1,30.12,East,85,4.0,0.0,74,0.00,,CLR,0.00,VWS V14.01,2013-06-08 01:58:00,
2013-06-07 19:03:00,65.6,56.7,30.12,ESE,118,6.0,0.0,73,0.00,,FEW026,0.00,VWS V14.01,2013-06-08 02:03:00,
2013-06-07 19:08:00,65.4,56.5,30.12,ESE,120,12.0,0.0,73,0.00,,FEW026,0.00,VWS V14.01,2013-06-08 02:08:00,
2013-06-07 19:13:00,65.3,56.8,30.12,NE,53,6.0,0.0,74,0.00,,FEW026,0.00,VWS V14.01,2013-06-08 02:13:00,
2013-06-07 19:18:00,65.0,56.5,30.13,ENE,59,5.0,0.0,74,0.00,,FEW026,0.00,VWS V14.01,2013-06-08 02:18:00,
2013-06-07 19:23:00,65.2,56.7,30.13,East,80,3.0,0.0,74,0.00,,FEW026,0.00,VWS V14.01,2013-06-08 02:23:00,
2013-06-07 19:29:00,65.0,56.2,30.12,ESE,110,3.0,0.0,73,0.00,,FEW026,0.00,VWS V14.01,2013-06-08 02:29:00,
2013-06-07 19:34:00,64.8,56.3,30.12,SE,128,1.0,0.0,74,0.00,,FEW026,0.00,VWS V14.01,2013-06-08 02:34:00,
2013-06-07 19:39:00,64.8,56.3,30.12,East,91,3.0,0.0,74,0.00,,FEW026,0.00,VWS V14.01,2013-06-08 02:39:00,
2013-06-07 19:44:00,64.5,56.0,30.12,SE,128,2.0,0.0,74,0.00,,FEW026,0.00,VWS V14.01,2013-06-08 02:44:00,
2013-06-07 19:49:00,64.2,56.1,30.12,ESE,105,4.0,0.0,75,0.00,,FEW026,0.00,VWS V14.01,2013-06-08 02:49:00,
2013-06-07 19:54:00,64.0,56.3,30.12,East,88,2.0,0.0,76,0.00,,FEW026,0.00,VWS V14.01,2013-06-08 02:54:00,
2013-06-07 19:59:00,64.0,56.3,30.12,ESE,111,2.0,0.0,76,0.00,,FEW026,0.00,VWS V14.01,2013-06-08 02:59:00,
2013-06-07 20:04:00,63.9,55.8,30.12,ESE,116,6.0,0.0,75,0.00,,CLR,0.00,VWS V14.01,2013-06-08 03:04:00,
2013-06-07 20:09:00,63.6,55.9,30.13,SE,142,4.0,0.0,76,0.00,,CLR,0.00,VWS V14.01,2013-06-08 03:09:00,
2013-06-07 20:14:00,63.0,55.7,30.13,ESE,118,3.0,0.0,77,0.00,,CLR,0.00,VWS V14.01,2013-06-08 03:14:00,
2013-06-07 20:19:00,62.5,55.6,30.13,ESE,113,8.0,0.0,78,0.00,,CLR,0.00,VWS V14.01,2013-06-08 03:19:00,
2013-06-07 20:24:00,61.9,55.0,30.13,SE,142,4.0,0.0,78,0.00,,CLR,0.00,VWS V14.01,2013-06-08 03:24:00,
2013-06-07 20:29:00,61.4,54.5,30.13,ESE,122,7.0,0.0,78,0.00,,CLR,0.00,VWS V14.01,2013-06-08 03:29:00,
2013-06-07 20:34:00,61.1,54.5,30.12,ESE,109,2.0,0.0,79,0.00,,CLR,0.00,VWS V14.01,2013-06-08 03:34:00,
2013-06-07 20:39:00,60.7,54.5,30.12,East,87,2.0,0.0,80,0.00,,CLR,0.00,VWS V14.01,2013-06-08 03:39:00,
2013-06-07 20:44:00,60.3,54.1,30.12,ESE,107,2.0,0.0,80,0.00,,CLR,0.00,VWS V14.01,2013-06-08 03:44:00,
2013-06-07 20:49:00,60.0,53.8,30.12,ESE,122,0.0,0.0,80,0.00,,CLR,0.00,VWS V14.01,2013-06-08 03:49:00,
2013-06-07 20:54:00,59.7,53.5,30.13,ESE,123,1.0,0.0,80,0.00,,CLR,0.00,VWS V14.01,2013-06-08 03:54:00,
2013-06-07 20:59:00,59.4,53.2,30.13,East,88,2.0,0.0,80,0.00,,CLR,0.00,VWS V14.01,2013-06-08 03:59:00,
2013-06-07 21:01:00,59.4,53.6,30.14,East,101,6.0,0.0,81,0.00,,CLR,0.00,VWS V14.01,2013-06-08 04:01:00,
2013-06-07 21:02:00,59.3,53.5,30.14,East,100,2.0,0.0,81,0.00,,CLR,0.00,VWS V14.01,2013-06-08 04:02:00,
2013-06-07 21:07:00,59.1,53.3,30.14,ESE,109,5.0,0.0,81,0.00,,FEW021,0.00,VWS V14.01,2013-06-08 04:07:00,
2013-06-07 21:12:00,58.8,53.0,30.14,ESE,117,4.0,0.0,81,0.00,,FEW021,0.00,VWS V14.01,2013-06-08 04:12:00,
2013-06-07 21:17:00,58.6,52.8,30.14,ESE,104,3.0,0.0,81,0.00,,FEW021,0.00,VWS V14.01,2013-06-08 04:17:00,
2013-06-07 21:22:00,58.4,52.6,30.14,ESE,119,3.0,0.0,81,0.00,,FEW021,0.00,VWS V14.01,2013-06-08 04:22:00,
2013-06-07 21:27:00,58.1,52.6,30.15,SE,126,1.0,0.0,82,0.00,,FEW021,0.00,VWS V14.01,2013-06-08 04:27:00,
2013-06-07 21:32:00,57.9,52.5,30.15,ESE,103,3.0,0.0,82,0.00,,FEW021,0.00,VWS V14.01,2013-06-08 04:32:00,
2013-06-07 21:37:00,57.7,52.2,30.15,SE,128,2.0,0.0,82,0.00,,FEW021,0.00,VWS V14.01,2013-06-08 04:37:00,
2013-06-07 21:42:00,57.5,52.1,30.16,ENE,66,3.0,0.0,82,0.00,,FEW021,0.00,VWS V14.01,2013-06-08 04:42:00,
2013-06-07 21:47:00,57.4,52.0,30.16,East,99,5.0,0.0,82,0.00,,FEW021,0.00,VWS V14.01,2013-06-08 04:47:00,
2013-06-07 21:52:00,57.1,52.0,30.16,ESE,109,4.0,0.0,83,0.00,,CLR,0.00,VWS V14.01,2013-06-08 04:52:00,
2013-06-07 21:57:00,57.0,51.9,30.16,ESE,103,2.0,0.0,83,0.00,,CLR,0.00,VWS V14.01,2013-06-08 04:57:00,
2013-06-07 22:02:00,56.7,51.6,30.16,ESE,105,3.0,0.0,83,0.00,,FEW026,0.00,VWS V14.01,2013-06-08 05:02:00,
2013-06-07 22:07:00,56.6,51.8,30.17,SE,132,1.0,0.0,84,0.00,,FEW026,0.00,VWS V14.01,2013-06-08 05:07:00,
2013-06-07 22:12:00,56.4,51.6,30.17,ESE,107,2.0,0.0,84,0.00,,FEW026,0.00,VWS V14.01,2013-06-08 05:12:00,
2013-06-07 22:17:00,56.3,51.5,30.17,ENE,73,3.0,0.0,84,0.00,,FEW026,0.00,VWS V14.01,2013-06-08 05:17:00,
2013-06-07 22:22:00,56.0,51.2,30.17,ESE,118,1.0,0.0,84,0.00,,FEW026,0.00,VWS V14.01,2013-06-08 05:22:00,
2013-06-07 22:27:00,55.8,51.4,30.17,ESE,115,1.0,0.0,85,0.00,,FEW026,0.00,VWS V14.01,2013-06-08 05:27:00,
2013-06-07 22:32:00,55.6,51.2,30.17,ESE,121,3.0,0.0,85,0.00,,FEW026,0.00,VWS V14.01,2013-06-08 05:32:00,
2013-06-07 22:37:00,55.5,51.1,30.17,ESE,121,1.0,0.0,85,0.00,,FEW026,0.00,VWS V14.01,2013-06-08 05:37:00,
2013-06-07 22:42:00,55.1,51.0,30.17,East,92,0.0,0.0,86,0.00,,FEW026,0.00,VWS V14.01,2013-06-08 05:42:00,
2013-06-07 22:47:00,54.9,50.8,30.17,East,95,3.0,0.0,86,0.00,,FEW026,0.00,VWS V14.01,2013-06-08 05:47:00,
2013-06-07 22:52:00,54.8,50.7,30.17,SSE,155,0.0,0.0,86,0.00,,FEW026,0.00,VWS V14.01,2013-06-08 05:52:00,
2013-06-07 22:57:00,54.8,50.7,30.17,ESE,116,0.0,0.0,86,0.00,,FEW026,0.00,VWS V14.01,2013-06-08 05:57:00,
2013-06-07 23:02:00,54.9,50.8,30.17,ESE,106,2.0,0.0,86,0.00,,BKN026,0.00,VWS V14.01,2013-06-08 06:02:00,
2013-06-07 23:07:00,54.8,50.7,30.17,ESE,109,2.0,0.0,86,0.00,,BKN026,0.00,VWS V14.01,2013-06-08 06:07:00,
2013-06-07 23:12:00,54.8,50.7,30.17,ESE,115,0.0,0.0,86,0.00,,BKN026,0.00,VWS V14.01,2013-06-08 06:12:00,
2013-06-07 23:17:00,54.8,50.7,30.17,ESE,104,2.0,0.0,86,0.00,,BKN026,0.00,VWS V14.01,2013-06-08 06:17:00,
2013-06-07 23:22:00,54.8,50.7,30.17,ESE,118,0.0,0.0,86,0.00,,OVC026,0.00,VWS V14.01,2013-06-08 06:22:00,
2013-06-07 23:27:00,54.8,50.7,30.17,East,98,1.0,0.0,86,0.00,,OVC026,0.00,VWS V14.01,2013-06-08 06:27:00,
2013-06-07 23:32:00,54.8,50.7,30.18,SE,126,1.0,0.0,86,0.00,,OVC026,0.00,VWS V14.01,2013-06-08 06:32:00,
2013-06-07 23:37:00,54.8,50.4,30.18,SE,145,0.0,0.0,85,0.00,,OVC026,0.00,VWS V14.01,2013-06-08 06:37:00,
2013-06-07 23:42:00,54.8,50.4,30.18,East,85,1.0,0.0,85,0.00,,OVC024,0.00,VWS V14.01,2013-06-08 06:42:00,
2013-06-07 23:47:00,54.7,50.0,30.18,East,89,5.0,0.0,84,0.00,,OVC024,0.00,VWS V14.01,2013-06-08 06:47:00,
2013-06-07 23:52:00,54.7,50.0,30.18,ESE,121,1.0,0.0,84,0.00,,OVC024,0.00,VWS V14.01,2013-06-08 06:52:00,
2013-06-07 23:57:00,54.6,49.9,30.18,East,83,1.0,0.0,84,0.00,,OVC024,0.00,VWS V14.01,2013-06-08 06:57:00,